Time;durP1;ratioP1;P1;durP2;ratioP2;P2;SDS_P1;SDS_P2;PMS_P1;PMS_P2;Temp;Humidity;BMP_temperature;BMP_pressure;BME280_temperature;BME280_humidity;BME280_pressure;Samples;Min_cycle;Max_cycle;Signal;HPM_P1;HPM_P2
2022/01/29 00:02:09;;;;;;;28.17;8.00;;;;;;;-0.34;75.88;101745.14;1735788;81;25853;-67
2022/01/29 00:04:35;;;;;;;33.18;10.58;;;;;;;-0.36;75.91;101742.47;1731111;81;98855;-66
2022/01/29 00:07:01;;;;;;;30.45;9.25;;;;;;;-0.35;75.97;101746.88;1683021;83;25866;-66
2022/01/29 00:09:27;;;;;;;29.90;9.15;;;;;;;-0.35;75.99;101748.63;1741300;80;28569;-65
2022/01/29 00:11:53;;;;;;;29.27;8.25;;;;;;;-0.37;76.01;101745.08;1735003;80;98943;-65
2022/01/29 00:14:22;;;;;;;34.53;7.72;;;;;;;-0.39;76.02;101747.69;1740598;80;25831;-66
2022/01/29 00:16:48;;;;;;;28.42;7.35;;;;;;;-0.37;76.08;101745.08;1736361;79;98982;-67
2022/01/29 00:19:14;;;;;;;32.60;9.05;;;;;;;-0.39;76.12;101741.53;1732498;81;25695;-65
2022/01/29 00:21:40;;;;;;;32.63;8.78;;;;;;;-0.39;76.17;101743.73;1735625;81;27385;-65
2022/01/29 00:24:06;;;;;;;33.73;9.10;;;;;;;-0.37;76.20;101731.48;1734380;81;98652;-65
2022/01/29 00:26:32;;;;;;;29.57;8.68;;;;;;;-0.37;76.27;101737.17;1688098;83;26604;-65
2022/01/29 00:28:58;;;;;;;29.20;8.10;;;;;;;-0.36;76.33;101735.89;1733206;81;98973;-66
2022/01/29 00:31:24;;;;;;;26.45;8.43;;;;;;;-0.36;76.34;101735.00;1693368;83;25960;-65
2022/01/29 00:33:50;;;;;;;36.28;8.28;;;;;;;-0.36;76.42;101733.69;1733038;81;27375;-65
2022/01/29 00:36:16;;;;;;;36.28;10.40;;;;;;;-0.38;76.48;101729.70;1689408;83;98669;-65
2022/01/29 00:38:42;;;;;;;30.48;8.30;;;;;;;-0.38;76.52;101731.02;1734488;81;25907;-65
2022/01/29 00:41:08;;;;;;;32.65;6.95;;;;;;;-0.38;76.58;101736.72;1689072;81;99549;-65
2022/01/29 00:43:34;;;;;;;20.35;6.10;;;;;;;-0.38;76.65;101734.97;1736203;81;25765;-65
2022/01/29 00:46:00;;;;;;;30.10;7.42;;;;;;;-0.36;76.74;101737.20;1685377;83;27456;-65
2022/01/29 00:48:26;;;;;;;22.50;7.70;;;;;;;-0.36;76.78;101735.89;1730715;80;98628;-65
2022/01/29 00:50:52;;;;;;;20.82;6.37;;;;;;;-0.36;76.80;101735.89;1686481;83;30437;-65
2022/01/29 00:53:17;;;;;;;21.80;7.28;;;;;;;-0.35;76.94;101728.44;1733133;81;99338;-65
2022/01/29 00:55:44;;;;;;;31.90;7.78;;;;;;;-0.35;76.97;101722.28;1733671;81;25739;-65
2022/01/29 00:58:10;;;;;;;22.80;6.17;;;;;;;-0.36;77.06;101712.18;1687848;83;27479;-65
2022/01/29 01:00:36;;;;;;;39.63;6.75;;;;;;;-0.36;77.09;101706.91;1731362;81;99393;-65
2022/01/29 01:03:02;;;;;;;21.15;6.50;;;;;;;-0.34;77.16;101709.58;1738626;81;25770;-65
2022/01/29 01:05:28;;;;;;;23.27;6.28;;;;;;;-0.35;77.21;101703.85;1698262;82;99231;-65
2022/01/29 01:07:53;;;;;;;17.42;4.85;;;;;;;-0.35;77.29;101706.05;1733796;81;25790;-65
2022/01/29 01:10:19;;;;;;;20.35;4.90;;;;;;;-0.33;77.37;101698.18;1730626;81;97955;-65
2022/01/29 01:12:45;;;;;;;20.60;4.70;;;;;;;-0.31;77.42;101690.30;1735825;81;33794;-65
2022/01/29 01:15:11;;;;;;;18.07;5.08;;;;;;;-0.33;77.47;101687.64;1733501;80;26786;-65
2022/01/29 01:17:37;;;;;;;21.60;6.15;;;;;;;-0.32;77.54;101693.37;1735212;81;98713;-64
2022/01/29 01:20:05;;;;;;;20.75;6.25;;;;;;;-0.35;77.60;101688.94;1738458;80;26350;-65
2022/01/29 01:22:31;;;;;;;21.17;6.22;;;;;;;-0.36;77.67;101681.89;1735268;80;98958;-65
2022/01/29 01:24:58;;;;;;;20.88;6.40;;;;;;;-0.37;77.74;101687.13;1690313;83;32249;-65
2022/01/29 01:27:24;;;;;;;25.12;5.92;;;;;;;-0.39;77.85;101678.31;1737749;80;25870;-65
2022/01/29 01:29:50;;;;;;;20.80;6.72;;;;;;;-0.39;77.92;101683.58;1722927;81;98751;-65
2022/01/29 01:32:16;;;;;;;15.00;4.83;;;;;;;-0.40;78.03;101677.86;1729157;80;25747;-66
2022/01/29 01:34:49;;;;;;;19.98;5.12;;;;;;;-0.39;78.12;101682.27;1724631;81;98924;-65
2022/01/29 01:37:20;;;;;;;22.25;5.65;;;;;;;-0.40;78.25;101677.86;1721433;81;25863;-64
2022/01/29 01:39:41;;;;;;;28.23;6.33;;;;;;;-0.39;78.40;101677.88;1736252;80;25831;-67
2022/01/29 01:42:08;;;;;;;20.08;5.58;;;;;;;-0.38;78.47;101673.08;1738423;81;98762;-64
2022/01/29 01:44:45;;;;;;;23.75;5.80;;;;;;;-0.35;78.59;101678.39;1734836;81;25780;-64
2022/01/29 01:47:13;;;;;;;19.00;4.37;;;;;;;-0.34;78.59;101666.11;1727770;81;98737;-65
2022/01/29 01:49:39;;;;;;;19.00;5.37;;;;;;;-0.32;78.72;101656.48;1730299;80;25902;-65
2022/01/29 01:52:10;;;;;;;17.62;4.62;;;;;;;-0.34;78.75;101647.25;1689836;83;25757;-65
2022/01/29 01:54:37;;;;;;;;;;;;;;;-0.31;78.83;101637.63;1735934;81;98549;-66
2022/01/29 01:57:04;;;;;;;19.87;4.67;;;;;;;-0.30;78.94;101639.39;1735583;81;25785;-65
2022/01/29 01:59:31;;;;;;;22.93;5.58;;;;;;;-0.31;79.07;101634.55;1734141;80;98815;-64
2022/01/29 02:01:57;;;;;;;22.55;4.58;;;;;;;-0.30;79.13;101633.70;1690031;83;26634;-65
2022/01/29 02:04:23;;;;;;;21.07;4.05;;;;;;;-0.29;79.19;101622.30;1734245;81;98820;-64
2022/01/29 02:06:51;;;;;;;16.85;4.40;;;;;;;-0.27;79.24;101615.73;1735509;80;25787;-64
2022/01/29 02:09:20;;;;;;;27.07;6.10;;;;;;;-0.26;79.35;101610.92;1738713;80;25767;-65
2022/01/29 02:11:55;;;;;;;19.52;4.12;;;;;;;-0.28;79.41;101609.58;1729101;80;98991;-64
2022/01/29 02:14:27;;;;;;;24.47;4.90;;;;;;;-0.28;79.46;101610.01;1726622;81;25814;-64
2022/01/29 02:16:51;;;;;;;16.23;5.15;;;;;;;-0.32;79.49;101606.44;1727567;81;98891;-64
2022/01/29 02:19:17;;;;;;;20.23;4.15;;;;;;;-0.33;79.55;101603.35;1725238;81;26323;-64
2022/01/29 02:21:43;;;;;;;15.55;5.45;;;;;;;-0.34;79.59;101586.66;1734225;81;25720;-64
2022/01/29 02:24:09;;;;;;;20.55;4.90;;;;;;;-0.33;79.66;101578.33;1736752;81;98761;-64
2022/01/29 02:26:35;;;;;;;23.40;4.00;;;;;;;-0.34;79.73;101580.08;1734963;81;33192;-66
2022/01/29 02:29:01;;;;;;;15.70;4.80;;;;;;;-0.31;79.81;101584.94;1694964;83;98832;-64
2022/01/29 02:31:28;;;;;;;19.55;4.60;;;;;;;-0.32;79.90;101580.10;1732994;81;26256;-64
2022/01/29 02:33:53;;;;;;;19.87;4.35;;;;;;;-0.31;79.93;101577.03;1736229;81;25726;-64
2022/01/29 02:36:19;;;;;;;20.92;5.00;;;;;;;-0.34;79.98;101581.39;1714738;81;98839;-64
2022/01/29 02:38:45;;;;;;;26.60;5.97;;;;;;;-0.34;80.01;101580.50;1724970;81;25722;-64
2022/01/29 02:41:11;;;;;;;19.95;5.00;;;;;;;-0.35;80.09;101578.30;1697748;83;98763;-64
2022/01/29 02:43:48;;;;;;;18.20;4.70;;;;;;;-0.34;80.16;101577.88;1698526;82;25839;-66
2022/01/29 02:48:45;;;;;;;20.92;5.08;;;;;;;-0.32;80.29;101557.71;1694099;83;98622;-67
2022/01/29 02:51:11;;;;;;;18.00;4.67;;;;;;;-0.30;80.41;101553.35;1697068;83;25754;-63
2022/01/29 02:53:37;;;;;;;20.60;4.00;;;;;;;-0.29;80.39;101555.13;1698525;83;98839;-65
2022/01/29 02:56:05;;;;;;;21.80;4.83;;;;;;;-0.28;80.51;101547.67;1692466;83;25872;-65
2022/01/29 02:58:31;;;;;;;23.85;4.83;;;;;;;-0.26;80.58;101546.38;1687193;82;98988;-65
2022/01/29 03:00:57;;;;;;;22.22;5.33;;;;;;;-0.25;80.71;101537.61;1690848;83;28410;-65
2022/01/29 03:03:24;;;;;;;27.37;5.15;;;;;;;-0.21;80.79;101531.53;1693867;83;25798;-65
2022/01/29 03:05:51;;;;;;;21.27;4.95;;;;;;;-0.20;80.84;101522.77;1693532;83;98795;-65
2022/01/29 03:08:18;;;;;;;32.05;7.05;;;;;;;-0.17;80.97;101526.75;1747432;80;26460;-65
2022/01/29 03:10:46;;;;;;;33.38;8.05;;;;;;;-0.14;81.06;101521.53;1746010;80;98803;-65
2022/01/29 03:13:11;;;;;;;30.27;7.72;;;;;;;-0.12;81.16;101518.05;1743140;81;28091;-65
2022/01/29 03:15:37;;;;;;;34.83;8.40;;;;;;;-0.10;81.21;101528.19;1743709;80;25814;-66
2022/01/29 03:18:03;;;;;;;33.08;7.75;;;;;;;-0.06;81.44;101522.09;1747221;81;98608;-65
2022/01/29 03:20:30;;;;;;;26.37;7.47;;;;;;;-0.02;81.56;101526.97;1743918;80;25799;-65
2022/01/29 03:22:58;;;;;;;38.42;7.92;;;;;;;0.01;81.66;101526.98;1751799;80;98790;-65
2022/01/29 03:25:25;;;;;;;35.73;7.25;;;;;;;0.03;81.67;101516.03;1752469;80;28193;-65
2022/01/29 03:27:52;;;;;;;27.37;7.67;;;;;;;0.06;81.79;101517.39;1745565;80;26288;-65
2022/01/29 03:30:18;;;;;;;37.17;8.10;;;;;;;0.08;81.84;101516.98;1747378;80;98492;-65
2022/01/29 03:32:44;;;;;;;37.98;8.25;;;;;;;0.11;81.87;101510.86;1744951;80;25815;-65
2022/01/29 03:35:11;;;;;;;31.60;7.12;;;;;;;0.14;81.99;101502.55;1738837;80;98681;-65
2022/01/29 03:37:38;;;;;;;30.05;6.87;;;;;;;0.16;81.99;101498.19;1745003;81;27445;-65
2022/01/29 03:40:08;;;;;;;28.42;7.00;;;;;;;0.19;82.13;101493.39;1742549;79;25834;-65
2022/01/29 03:42:40;;;;;;;26.27;5.20;;;;;;;0.22;82.19;101482.45;1739123;81;99415;-65
2022/01/29 03:45:05;;;;;;;22.13;4.25;;;;;;;0.25;82.22;101474.58;1736848;81;26129;-65
2022/01/29 03:47:31;;;;;;;31.87;4.70;;;;;;;0.29;82.39;101472.42;1742242;81;98508;-65
2022/01/29 03:49:57;;;;;;;32.45;5.78;;;;;;;0.31;82.44;101465.85;1748730;81;28721;-65
2022/01/29 03:52:22;;;;;;;25.23;5.03;;;;;;;0.31;82.49;101457.51;1743657;80;98603;-65
2022/01/29 03:54:48;;;;;;;40.23;5.05;;;;;;;0.33;82.49;101458.84;1745922;81;25746;-65
2022/01/29 03:57:14;;;;;;;34.03;6.70;;;;;;;0.34;82.53;101461.94;1745455;81;27863;-65
2022/01/29 03:59:40;;;;;;;24.72;4.90;;;;;;;0.34;82.58;101468.52;1729772;80;99207;-64
2022/01/29 04:02:06;;;;;;;35.40;5.67;;;;;;;0.37;82.63;101468.55;1740678;81;29644;-64
2022/01/29 04:04:32;;;;;;;36.27;4.83;;;;;;;0.38;82.67;101460.22;1745587;81;99044;-64
2022/01/29 04:07:05;;;;;;;26.00;4.80;;;;;;;0.40;82.69;101437.37;1746767;80;25783;-64
2022/01/29 04:09:28;;;;;;;33.00;4.67;;;;;;;0.40;82.75;101440.02;1743604;80;25772;-64
2022/01/29 04:11:53;;;;;;;31.60;5.03;;;;;;;0.40;82.81;101450.13;1743023;80;98596;-63
2022/01/29 04:14:20;;;;;;;23.60;5.75;;;;;;;0.39;82.78;101440.89;1746802;80;26297;-65
2022/01/29 04:16:46;;;;;;;29.37;5.17;;;;;;;0.37;82.88;101432.08;1743909;80;98837;-65
2022/01/29 04:19:12;;;;;;;22.50;4.05;;;;;;;0.38;82.95;101436.48;1747927;81;26591;-64
2022/01/29 04:21:44;;;;;;;32.25;5.40;;;;;;;0.38;83.01;101432.09;1746584;80;25712;-65
2022/01/29 04:24:08;;;;;;;25.92;5.15;;;;;;;0.38;83.07;101433.41;1750153;80;98548;-64
2022/01/29 04:26:35;;;;;;;25.00;5.97;;;;;;;0.39;83.16;101432.97;1744496;80;27374;-64
2022/01/29 04:29:06;;;;;;;27.10;4.75;;;;;;;0.38;83.23;101422.86;1742583;81;98735;-64
2022/01/29 04:31:57;;;;;;;20.75;4.10;;;;;;;0.43;83.26;101429.50;1747831;81;25804;-64
2022/01/29 04:34:11;;;;;;;39.13;5.55;;;;;;;0.44;83.41;101428.63;1747817;81;27889;-64
2022/01/29 04:36:37;;;;;;;30.05;4.78;;;;;;;0.46;83.41;101426.89;1744182;80;98516;-64
2022/01/29 04:39:03;;;;;;;27.22;5.30;;;;;;;0.48;83.46;101426.48;1745757;80;29616;-64
2022/01/29 04:41:29;;;;;;;39.63;5.62;;;;;;;0.48;83.50;101420.77;1755543;80;98607;-64
2022/01/29 04:43:55;;;;;;;30.35;5.67;;;;;;;0.48;83.63;101414.17;1756032;80;25850;-67
2022/01/29 04:46:22;;;;;;;33.95;5.60;;;;;;;0.49;83.64;101404.51;1762093;79;26397;-65
2022/01/29 04:48:48;;;;;;;22.87;4.80;;;;;;;0.50;83.76;101399.69;1755017;79;98424;-64
2022/01/29 04:51:14;;;;;;;33.78;5.78;;;;;;;0.50;83.69;101401.89;1760807;80;27446;-65
2022/01/29 04:53:40;;;;;;;37.53;5.83;;;;;;;0.50;83.75;101393.09;1751732;80;98491;-64
2022/01/29 04:56:07;;;;;;;24.57;4.95;;;;;;;0.49;83.75;101384.73;1765529;80;26391;-64
2022/01/29 04:58:35;;;;;;;33.67;5.45;;;;;;;0.49;83.78;101371.55;1756488;78;98826;-65
2022/01/29 05:01:01;;;;;;;29.72;5.50;;;;;;;0.47;83.82;101359.66;1759950;80;25818;-64
2022/01/29 05:03:27;;;;;;;22.98;4.50;;;;;;;0.47;83.87;101365.37;1760074;79;27514;-64
2022/01/29 05:05:53;;;;;;;32.98;5.15;;;;;;;0.47;83.96;101362.73;1759446;80;98445;-64
2022/01/29 05:08:19;;;;;;;38.65;6.70;;;;;;;0.48;83.96;101357.91;1758601;79;25870;-65
2022/01/29 05:10:46;;;;;;;26.20;5.87;;;;;;;0.48;84.04;101347.36;1757502;79;98794;-64
2022/01/29 05:13:13;;;;;;;38.53;7.35;;;;;;;0.47;84.03;101341.63;1752008;80;26519;-65
2022/01/29 05:16:00;;;;;;;31.12;6.05;;;;;;;0.46;84.01;101327.56;1755405;80;27837;-64
2022/01/29 05:29:12;;;;;;;30.05;5.80;;;;;;;0.44;84.23;101304.25;1755834;78;98768;-64
2022/01/29 05:31:39;;;;;;;25.75;4.40;;;;;;;0.45;84.33;101301.17;1753437;80;27177;-65
2022/01/29 05:34:05;;;;;;;26.68;5.60;;;;;;;0.44;84.29;101292.81;1757582;80;26357;-64
2022/01/29 05:36:31;;;;;;;34.25;6.40;;;;;;;0.42;84.44;101290.60;1757233;80;98391;-65
2022/01/29 05:38:59;;;;;;;29.77;5.70;;;;;;;0.43;84.43;101293.69;1760961;80;25778;-64
2022/01/29 05:41:25;;;;;;;29.50;5.55;;;;;;;0.43;84.39;101285.78;1750296;80;98466;-65
2022/01/29 05:43:51;;;;;;;30.35;6.87;;;;;;;0.44;84.43;101282.27;1741381;80;25743;-64
2022/01/29 05:46:17;;;;;;;31.33;5.67;;;;;;;0.45;84.46;101285.35;1741189;80;25728;-64
2022/01/29 05:48:43;;;;;;;31.70;6.95;;;;;;;0.48;84.71;101288.02;1742354;81;98510;-64
2022/01/29 05:51:10;;;;;;;31.10;5.20;;;;;;;0.51;84.54;101290.68;1735459;80;25793;-65
2022/01/29 05:53:36;;;;;;;32.20;6.83;;;;;;;0.52;84.54;101285.41;1744870;81;98666;-65
2022/01/29 05:56:03;;;;;;;25.68;5.75;;;;;;;0.54;84.53;101282.79;1749097;81;25728;-64
2022/01/29 05:58:29;;;;;;;35.88;6.00;;;;;;;0.55;84.56;101268.73;1751990;79;98703;-64
2022/01/29 06:00:55;;;;;;;32.42;4.90;;;;;;;0.55;84.60;101274.00;1748846;80;25722;-66
2022/01/29 06:03:22;;;;;;;27.42;5.87;;;;;;;0.57;84.80;101268.30;1743696;80;25518;-64
2022/01/29 06:05:48;;;;;;;28.12;5.15;;;;;;;0.59;84.69;101271.84;1750078;80;98875;-64
2022/01/29 06:08:14;;;;;;;31.80;5.47;;;;;;;0.59;84.77;101262.17;1746022;80;25840;-65
2022/01/29 06:10:41;;;;;;;34.88;5.58;;;;;;;0.61;84.74;101259.54;1739313;80;99089;-64
2022/01/29 06:13:11;;;;;;;24.67;6.47;;;;;;;0.62;84.74;101254.71;1748755;80;27541;-64
2022/01/29 06:15:42;;;;;;;20.77;4.58;;;;;;;0.62;84.77;101250.32;1751403;80;26233;-65
2022/01/29 06:18:12;;;;;;;;;;;;;;;0.63;84.79;101251.20;1746542;80;98614;-64
2022/01/29 06:20:43;;;;;;;26.95;5.10;;;;;;;0.63;84.87;101240.21;1746255;81;25927;-63
2022/01/29 06:23:11;;;;;;;37.00;6.50;;;;;;;0.61;84.85;101234.48;1738204;80;98807;-64
2022/01/29 06:25:38;;;;;;;38.10;5.00;;;;;;;0.59;84.86;101229.63;1740118;80;25739;-65
2022/01/29 06:28:04;;;;;;;38.50;7.33;;;;;;;0.58;84.88;101232.70;1744537;81;25734;-64
2022/01/29 06:30:31;;;;;;;42.38;7.95;;;;;;;0.57;84.92;101231.38;1743435;80;98710;-64
2022/01/29 06:32:56;;;;;;;37.88;8.08;;;;;;;0.54;84.97;101229.60;1740517;81;25878;-64
2022/01/29 06:35:23;;;;;;;46.90;7.83;;;;;;;0.49;85.05;101223.84;1748777;80;98599;-64
2022/01/29 06:37:48;;;;;;;46.45;8.78;;;;;;;0.54;85.28;101227.40;1749009;81;25706;-64
2022/01/29 06:40:15;;;;;;;48.00;10.40;;;;;;;0.52;85.21;101210.68;1748949;81;25693;-64
2022/01/29 06:42:40;;;;;;;32.73;7.08;;;;;;;0.52;85.21;101208.05;1735852;81;98769;-65
2022/01/29 06:45:11;;;;;;;38.60;6.72;;;;;;;0.50;85.20;101207.15;1736722;81;27207;-65
2022/01/29 06:47:37;;;;;;;42.78;6.53;;;;;;;0.47;85.46;101205.81;1732155;81;98656;-65
2022/01/29 06:50:04;;;;;;;21.35;4.53;;;;;;;0.46;85.81;101203.61;1733760;81;25781;-66
2022/01/29 06:52:29;;;;;;;43.60;6.22;;;;;;;0.45;85.59;101195.25;1733271;81;98770;-66
2022/01/29 06:54:55;;;;;;;20.62;5.12;;;;;;;0.46;85.57;101196.14;1731054;81;29704;-66
2022/01/29 06:57:21;;;;;;;20.15;4.58;;;;;;;0.46;85.57;101188.23;1732307;81;31788;-67
2022/01/29 06:59:47;;;;;;;33.78;5.83;;;;;;;0.44;85.58;101184.70;1733827;81;98539;-66
2022/01/29 07:02:13;;;;;;;26.33;5.45;;;;;;;0.41;86.18;101171.49;1733268;81;25828;-67
2022/01/29 07:04:39;;;;;;;29.60;5.72;;;;;;;0.41;85.75;101180.72;1732931;81;98625;-66
2022/01/29 07:07:04;;;;;;;44.48;6.87;;;;;;;0.40;85.80;101167.09;1731638;81;27478;-66
2022/01/29 07:09:30;;;;;;;30.82;5.90;;;;;;;0.41;85.81;101172.37;1732574;81;25796;-67
2022/01/29 07:12:07;;;;;;;33.45;8.78;;;;;;;0.42;85.93;101167.98;1724716;81;98536;-68
2022/01/29 07:14:24;;;;;;;25.62;5.92;;;;;;;0.42;85.90;101173.25;1730394;81;25831;-65
2022/01/29 07:16:50;;;;;;;40.10;5.95;;;;;;;0.42;85.93;101163.59;1727637;81;98608;-67
2022/01/29 07:19:16;;;;;;;29.05;5.90;;;;;;;0.44;85.94;101158.33;1728638;81;27501;-67
2022/01/29 07:21:42;;;;;;;31.65;6.45;;;;;;;0.43;86.07;101152.60;1731758;81;25874;-67
2022/01/29 07:24:08;;;;;;;33.73;7.00;;;;;;;0.42;86.14;101142.92;1734495;81;98542;-68
2022/01/29 07:26:34;;;;;;;34.08;6.87;;;;;;;0.44;86.12;101143.38;1729840;81;26503;-68
2022/01/29 07:28:59;;;;;;;30.70;6.12;;;;;;;0.44;86.20;101143.38;1725410;81;98831;-68
2022/01/29 07:31:25;;;;;;;27.58;6.00;;;;;;;0.43;86.33;101135.46;1725723;81;26916;-68
2022/01/29 07:33:51;;;;;;;27.22;6.60;;;;;;;0.43;86.29;101127.55;1730419;81;25932;-69
2022/01/29 07:36:17;;;;;;;21.95;6.03;;;;;;;0.43;86.29;101124.91;1731817;81;98451;-68
2022/01/29 07:38:43;;;;;;;32.35;5.92;;;;;;;0.44;86.73;101118.77;1730900;81;25806;-68
2022/01/29 07:41:09;;;;;;;41.05;7.80;;;;;;;0.45;86.44;101115.25;1728933;80;98717;-69
2022/01/29 07:43:35;;;;;;;27.80;6.80;;;;;;;0.44;86.45;101118.77;1746927;80;27513;-69
2022/01/29 07:46:01;;;;;;;33.18;6.95;;;;;;;0.45;86.47;101119.22;1749467;80;25834;-69
2022/01/29 07:48:27;;;;;;;33.80;6.83;;;;;;;0.46;86.54;101104.72;1751911;80;98500;-69
2022/01/29 07:50:53;;;;;;;43.55;7.95;;;;;;;0.48;86.62;101099.45;1750738;80;25844;-69
2022/01/29 07:53:21;;;;;;;28.55;9.45;;;;;;;0.47;86.65;101097.25;1755668;80;98542;-69
2022/01/29 07:55:48;;;;;;;39.73;11.22;;;;;;;0.49;86.71;101081.44;1751016;80;27979;-70
2022/01/29 07:58:15;;;;;;;58.85;15.38;;;;;;;0.48;86.80;101080.55;1751118;80;25616;-69
2022/01/29 08:00:42;;;;;;;56.83;16.77;;;;;;;0.47;86.81;101069.56;1750981;80;98839;-69
2022/01/29 08:03:08;;;;;;;41.08;13.78;;;;;;;0.48;86.85;101067.80;1748458;80;26146;-69
2022/01/29 08:05:35;;;;;;;54.58;13.98;;;;;;;0.48;86.88;101062.53;1748382;80;98723;-69
2022/01/29 08:08:01;;;;;;;45.25;13.50;;;;;;;0.47;86.98;101055.05;1749253;80;29122;-70
2022/01/29 08:10:26;;;;;;;40.98;9.68;;;;;;;0.46;86.98;101048.02;1757148;80;26806;-69
2022/01/29 08:12:52;;;;;;;34.67;7.92;;;;;;;0.46;87.20;101040.55;1757568;79;97425;-70
2022/01/29 08:15:18;;;;;;;44.67;8.78;;;;;;;0.44;87.18;101045.81;1750907;80;26410;-70
2022/01/29 08:17:44;;;;;;;38.63;8.55;;;;;;;0.42;87.14;101038.33;1750080;79;98574;-69
2022/01/29 08:20:12;;;;;;;40.83;9.63;;;;;;;0.42;87.18;101042.72;1750204;80;29239;-71
2022/01/29 08:22:38;;;;;;;33.60;9.25;;;;;;;0.42;87.21;101034.81;1753040;80;98733;-70
2022/01/29 08:25:05;;;;;;;25.10;7.50;;;;;;;0.41;87.25;101036.56;1746405;80;25780;-71
2022/01/29 08:27:31;;;;;;;46.02;10.35;;;;;;;0.44;87.35;101038.34;1750624;80;25774;-69
2022/01/29 08:29:57;;;;;;;31.62;9.35;;;;;;;0.46;87.60;101028.68;1756667;79;98663;-69
2022/01/29 08:32:23;;;;;;;34.23;8.08;;;;;;;0.48;87.60;101032.20;1751060;80;27853;-68
2022/01/29 08:34:49;;;;;;;37.67;8.38;;;;;;;0.50;87.57;101016.83;1748168;79;98648;-69
2022/01/29 08:37:15;;;;;;;26.97;8.13;;;;;;;0.55;88.54;101010.25;1749390;79;25680;-70
2022/01/29 08:39:41;;;;;;;30.35;7.78;;;;;;;0.60;87.82;100999.27;1755101;79;26415;-69
2022/01/29 08:42:10;;;;;;;22.82;6.95;;;;;;;0.64;87.95;100983.46;1754062;79;98504;-72
2022/01/29 08:44:37;;;;;;;35.78;8.78;;;;;;;0.69;87.88;100987.42;1754020;80;27440;-70
2022/01/29 08:47:04;;;;;;;23.87;8.43;;;;;;;0.69;88.05;100986.55;1727362;81;98770;-70
2022/01/29 08:49:30;;;;;;;30.95;8.58;;;;;;;0.68;88.77;100985.66;1726762;80;25734;-68
2022/01/29 08:51:56;;;;;;;28.47;8.38;;;;;;;0.68;88.10;100975.11;1728830;81;25791;-69
2022/01/29 08:54:22;;;;;;;29.52;8.48;;;;;;;0.67;88.23;100974.67;1691812;83;98885;-69
2022/01/29 08:56:47;;;;;;;29.70;8.73;;;;;;;0.68;88.17;100967.20;1733625;80;28257;-69
2022/01/29 08:59:13;;;;;;;36.38;9.38;;;;;;;0.68;88.23;100965.87;1687731;83;98765;-69
2022/01/29 09:01:39;;;;;;;30.90;11.00;;;;;;;0.68;88.40;100965.87;1739754;80;26197;-69
2022/01/29 09:04:06;;;;;;;30.20;11.33;;;;;;;0.70;88.34;100957.97;1734726;80;26567;-69
2022/01/29 09:06:31;;;;;;;30.88;13.32;;;;;;;0.69;88.33;100950.94;1734086;80;97875;-68
2022/01/29 09:08:57;;;;;;;45.30;14.47;;;;;;;0.67;88.38;100932.47;1736935;80;29542;-69
2022/01/29 09:11:24;;;;;;;38.80;14.77;;;;;;;0.67;88.44;100940.38;1732630;80;98744;-69
2022/01/29 09:13:50;;;;;;;37.70;15.93;;;;;;;0.67;88.51;100946.98;1736287;80;25756;-69
2022/01/29 09:16:15;;;;;;;29.87;13.35;;;;;;;0.65;88.60;100936.86;1740329;80;25961;-68
2022/01/29 09:18:41;;;;;;;27.22;13.18;;;;;;;0.64;88.64;100938.62;1738838;79;98784;-70
2022/01/29 09:21:07;;;;;;;26.05;10.45;;;;;;;0.61;88.81;100920.59;1736504;80;28334;-69
2022/01/29 09:23:33;;;;;;;39.65;12.05;;;;;;;0.60;88.80;100919.70;1735553;79;98787;-69
2022/01/29 09:26:01;;;;;;;31.15;10.63;;;;;;;0.60;88.95;100917.51;1740164;80;25696;-71
2022/01/29 09:28:27;;;;;;;26.07;12.63;;;;;;;0.58;88.92;100912.23;1732343;80;25779;-70
2022/01/29 09:30:56;;;;;;;44.35;17.17;;;;;;;0.57;89.51;100898.60;1735998;80;98522;-70
2022/01/29 09:33:28;;;;;;;54.03;22.55;;;;;;;0.58;89.13;100899.48;1733135;80;28129;-71
2022/01/29 09:35:56;;;;;;;56.77;24.02;;;;;;;0.56;89.13;100898.59;1735638;80;98626;-71
2022/01/29 09:38:24;;;;;;;27.37;13.08;;;;;;;0.56;89.14;100890.69;1741722;80;26481;-72
2022/01/29 09:40:50;;;;;;;29.57;14.28;;;;;;;0.54;89.13;100890.69;1737172;80;98913;-70
2022/01/29 09:43:17;;;;;;;26.93;10.38;;;;;;;0.50;89.10;100886.28;1733668;80;25747;-70
2022/01/29 09:45:43;;;;;;;18.27;10.15;;;;;;;0.50;89.17;100886.28;1735929;80;28338;-71
2022/01/29 09:48:09;;;;;;;21.73;10.08;;;;;;;0.49;89.26;100883.20;1736036;80;98787;-72
2022/01/29 09:50:38;;;;;;;25.08;11.63;;;;;;;0.47;89.35;100876.17;1740504;80;25869;-71
2022/01/29 09:53:07;;;;;;;24.10;11.80;;;;;;;0.46;89.33;100879.69;1737012;79;98855;-70
2022/01/29 09:55:32;;;;;;;29.37;15.15;;;;;;;0.44;89.50;100881.00;1737477;80;25921;-69
2022/01/29 09:57:59;;;;;;;29.42;14.83;;;;;;;0.44;89.83;100861.22;1740119;80;28024;-68
2022/01/29 10:00:26;;;;;;;26.97;15.15;;;;;;;0.44;89.57;100865.18;1732797;80;98851;-68
2022/01/29 10:03:15;;;;;;;18.42;11.05;;;;;;;0.43;89.55;100862.54;1741743;80;26637;-65
2022/01/29 10:05:48;;;;;;;28.23;14.65;;;;;;;0.43;89.72;100861.22;1735273;80;98741;-68
2022/01/29 10:08:15;;;;;;;27.35;13.08;;;;;;;0.39;89.66;100842.32;1730089;80;25727;-70
2022/01/29 10:10:47;;;;;;;22.40;11.73;;;;;;;0.38;89.63;100832.65;1733372;80;98813;-70
2022/01/29 10:13:36;;;;;;;34.70;19.32;;;;;;;0.36;90.07;100830.45;1735011;80;25790;-67
2022/01/29 10:16:20;;;;;;;21.65;10.82;;;;;;;0.35;89.76;100828.69;1733073;80;25775;-71
2022/01/29 10:19:05;;;;;;;25.57;10.78;;;;;;;0.32;89.79;100813.31;1734537;80;98527;-70
2022/01/29 10:21:35;;;;;;;20.02;10.32;;;;;;;0.29;89.80;100809.36;1734770;80;25911;-71
2022/01/29 10:24:14;;;;;;;22.15;11.03;;;;;;;0.30;89.90;100801.88;1720884;81;98693;-69
2022/01/29 10:26:43;;;;;;;18.42;10.03;;;;;;;0.30;90.04;100795.30;1739898;80;25891;-69
2022/01/29 10:29:19;;;;;;;24.57;11.18;;;;;;;0.31;89.95;100785.63;1737460;80;98904;-70
2022/01/29 10:31:49;;;;;;;43.68;19.82;;;;;;;0.28;90.01;100782.55;1741715;80;26577;-69
2022/01/29 10:34:25;;;;;;;33.70;15.80;;;;;;;0.29;89.99;100776.41;1742698;80;25825;-69
2022/01/29 10:37:12;;;;;;;20.85;11.25;;;;;;;0.29;90.02;100764.53;1738205;80;98836;-70
2022/01/29 10:39:40;;;;;;;20.80;11.15;;;;;;;0.29;90.34;100755.31;1730380;80;25694;-68
2022/01/29 10:42:17;;;;;;;17.82;10.70;;;;;;;0.31;90.35;100739.49;1735016;80;98784;-70
2022/01/29 10:44:45;;;;;;;21.80;10.72;;;;;;;0.35;90.27;100738.61;1745451;80;26472;-69
2022/01/29 10:47:13;;;;;;;20.12;10.58;;;;;;;0.38;90.54;100737.30;1737958;80;98796;-69
2022/01/29 10:49:45;;;;;;;17.60;10.25;;;;;;;0.40;90.67;100724.11;1740688;80;29466;-69
2022/01/29 10:52:14;;;;;;;23.50;10.10;;;;;;;0.43;90.48;100714.87;1721661;80;27164;-70
2022/01/29 10:54:43;;;;;;;22.87;11.00;;;;;;;0.44;90.88;100709.60;1735518;80;98705;-69
2022/01/29 10:57:12;;;;;;;24.18;11.88;;;;;;;0.49;90.50;100697.73;1741050;80;25802;-68
2022/01/29 10:59:50;;;;;;;26.12;12.33;;;;;;;0.53;90.47;100691.57;1741832;80;98613;-68
2022/01/29 11:02:19;;;;;;;25.10;13.70;;;;;;;0.56;90.59;100679.70;1739900;80;27406;-71
2022/01/29 11:04:49;;;;;;;27.32;14.00;;;;;;;0.57;90.66;100671.78;1738926;80;98914;-70
2022/01/29 11:07:25;;;;;;;23.30;11.25;;;;;;;0.59;90.73;100674.41;1739499;80;25790;-69
2022/01/29 11:09:50;;;;;;;30.70;11.68;;;;;;;0.60;90.83;100671.77;1735299;80;25895;-69
2022/01/29 11:12:25;;;;;;;20.75;10.45;;;;;;;0.62;90.84;100664.73;1741260;80;98729;-68
2022/01/29 11:14:55;;;;;;;20.92;10.13;;;;;;;0.64;91.07;100655.06;1738919;80;29498;-69
2022/01/29 11:17:23;;;;;;;25.53;10.80;;;;;;;0.71;91.07;100655.92;1738408;80;98716;-69
2022/01/29 11:19:49;;;;;;;20.12;11.05;;;;;;;0.74;91.29;100638.77;1738700;80;25822;-69
2022/01/29 11:22:20;;;;;;;20.10;10.40;;;;;;;0.77;91.07;100635.23;1739325;80;25814;-69
2022/01/29 11:24:48;;;;;;;21.12;10.63;;;;;;;0.80;91.05;100630.83;1734421;80;98574;-69
2022/01/29 11:27:29;;;;;;;18.65;10.93;;;;;;;0.85;91.08;100637.41;1740035;80;28102;-70
2022/01/29 11:30:14;;;;;;;19.90;11.08;;;;;;;0.86;91.21;100626.84;1736874;80;98767;-71
2022/01/29 11:32:45;;;;;;;20.50;11.55;;;;;;;0.87;91.12;100609.25;1737300;80;25878;-69
2022/01/29 11:35:22;;;;;;;20.10;11.65;;;;;;;0.90;91.17;100613.19;1741398;80;98915;-69
2022/01/29 11:38:06;;;;;;;19.73;10.48;;;;;;;0.91;91.22;100608.35;1741297;80;25344;-69